Time;durP1;ratioP1;P1;durP2;ratioP2;P2;SDS_P1;SDS_P2;PMS_P1;PMS_P2;Temp;Humidity;BMP_temperature;BMP_pressure;BME280_temperature;BME280_humidity;BME280_pressure;Samples;Min_cycle;Max_cycle;Signal;HPM_P1;HPM_P2
2021/07/22 00:00:06;;;;;;;3.10;1.70;;;23.90;60.80;;;;;;5092861;28;20110;-77
2021/07/22 00:02:37;;;;;;;2.42;1.67;;;23.90;60.80;;;;;;5075745;28;20036;-77
2021/07/22 00:05:05;;;;;;;4.32;1.80;;;23.80;61.10;;;;;;5092724;28;20076;-77
2021/07/22 00:07:31;;;;;;;5.10;1.60;;;23.70;60.60;;;;;;5074869;28;20039;-77
2021/07/22 00:09:57;;;;;;;3.50;1.80;;;23.80;60.60;;;;;;5092597;28;20404;-77
2021/07/22 00:12:23;;;;;;;2.60;1.73;;;23.70;61.00;;;;;;5093309;28;20036;-78
2021/07/22 00:14:49;;;;;;;2.13;1.77;;;23.60;61.10;;;;;;5096540;28;20511;-78
2021/07/22 00:17:15;;;;;;;2.67;1.80;;;23.70;60.90;;;;;;5079359;28;20040;-79
2021/07/22 00:19:40;;;;;;;2.72;1.80;;;23.70;60.70;;;;;;5097376;28;20491;-77
2021/07/22 00:22:06;;;;;;;2.30;1.65;;;23.70;60.80;;;;;;5096795;28;20032;-77
2021/07/22 00:24:36;;;;;;;2.67;1.88;;;23.70;60.90;;;;;;5096804;28;20114;-77
2021/07/22 00:27:02;;;;;;;1.75;1.50;;;23.60;60.90;;;;;;5096578;28;20039;-73
2021/07/22 00:29:30;;;;;;;3.33;1.70;;;23.40;60.90;;;;;;5096759;28;20036;-73
2021/07/22 00:31:57;;;;;;;2.53;1.50;;;23.30;61.40;;;;;;5096380;28;20040;-73
2021/07/22 00:34:24;;;;;;;2.45;1.80;;;23.10;61.70;;;;;;5086206;28;20055;-73
2021/07/22 00:36:50;;;;;;;4.43;1.75;;;22.90;62.60;;;;;;5096734;28;20059;-73
2021/07/22 00:39:18;;;;;;;1.73;1.60;;;22.80;62.90;;;;;;5106580;28;20438;-73
2021/07/22 00:41:49;;;;;;;1.70;1.60;;;23.00;62.40;;;;;;5098450;28;20042;-72
2021/07/22 00:44:15;;;;;;;2.75;1.92;;;22.90;62.30;;;;;;5116679;28;20066;-72
2021/07/22 00:46:41;;;;;;;3.60;1.95;;;23.10;62.20;;;;;;5081817;28;20036;-72
2021/07/22 00:49:11;;;;;;;2.83;1.58;;;23.00;62.20;;;;;;5098131;28;20427;-72
2021/07/22 00:51:39;;;;;;;2.15;1.60;;;23.00;62.50;;;;;;5116283;28;20499;-72
2021/07/22 00:54:07;;;;;;;2.30;1.55;;;22.70;62.80;;;;;;5097999;28;20116;-72
2021/07/22 00:56:34;;;;;;;2.72;1.50;;;22.70;63.00;;;;;;5097898;28;20042;-72
2021/07/22 00:59:03;;;;;;;2.53;1.67;;;;;;;;;;5097969;28;20039;-72
2021/07/22 01:01:30;;;;;;;1.60;1.50;;;22.50;62.80;;;;;;5097715;28;20461;-72
2021/07/22 01:03:56;;;;;;;1.80;1.70;;;22.50;63.50;;;;;;5097559;28;20032;-72
2021/07/22 01:06:22;;;;;;;2.67;1.60;;;22.60;63.40;;;;;;5097879;28;20036;-72
2021/07/22 01:08:49;;;;;;;3.88;2.00;;;22.40;63.30;;;;;;5098043;28;20062;-71
2021/07/22 01:11:33;;;;;;;1.77;1.58;;;22.40;63.40;;;;;;5097957;28;20551;-72
2021/07/22 01:13:59;;;;;;;2.78;1.80;;;22.30;63.50;;;;;;5115915;28;20042;-73
2021/07/22 01:16:26;;;;;;;2.90;1.77;;;22.30;63.70;;;;;;5098515;28;20046;-72
2021/07/22 01:18:52;;;;;;;3.08;1.48;;;22.20;64.00;;;;;;5097727;28;20039;-73
2021/07/22 01:21:19;;;;;;;3.13;1.30;;;;;;;;;;5097519;28;20046;-72
2021/07/22 01:23:46;;;;;;;1.80;1.70;;;22.30;63.50;;;;;;5115931;28;20042;-73
2021/07/22 01:26:31;;;;;;;1.88;1.42;;;22.20;63.90;;;;;;5115264;28;20058;-73
2021/07/22 01:29:04;;;;;;;2.78;1.70;;;22.20;64.10;;;;;;5116361;28;20897;-73
2021/07/22 01:31:32;;;;;;;1.90;1.48;;;22.10;64.30;;;;;;5081273;28;20081;-74
2021/07/22 01:33:58;;;;;;;2.70;1.60;;;22.10;64.50;;;;;;5097800;28;20440;-73
2021/07/22 01:36:25;;;;;;;3.17;1.60;;;22.10;64.50;;;;;;5093751;28;20043;-73
2021/07/22 01:38:54;;;;;;;1.67;1.58;;;21.80;65.00;;;;;;5095395;28;20048;-73
2021/07/22 01:41:20;;;;;;;2.03;1.50;;;22.00;64.90;;;;;;5093783;28;20032;-73
2021/07/22 01:43:47;;;;;;;2.88;1.60;;;22.00;64.80;;;;;;5095076;28;20035;-73
2021/07/22 01:46:19;;;;;;;3.70;1.70;;;22.00;64.90;;;;;;5095067;28;20036;-73
2021/07/22 01:48:46;;;;;;;2.42;1.50;;;;;;;;;;5093715;28;20035;-73
2021/07/22 01:51:12;;;;;;;5.60;1.65;;;22.10;64.00;;;;;;5094035;28;20035;-73
2021/07/22 01:53:45;;;;;;;2.13;1.33;;;;;;;;;;5093651;28;20126;-72
2021/07/22 01:56:14;;;;;;;4.63;1.25;;;;;;;;;;5095064;28;20051;-73
2021/07/22 01:58:40;;;;;;;1.77;1.40;;;22.10;63.90;;;;;;5093479;28;20040;-75
2021/07/22 02:01:08;;;;;;;3.38;1.40;;;;;;;;;;5093565;28;20039;-73
2021/07/22 02:03:37;;;;;;;2.88;1.40;;;22.30;65.80;;;;;;5093352;28;20043;-72
2021/07/22 02:06:09;;;;;;;3.15;1.50;;;22.30;66.70;;;;;;5076349;28;20067;-73
2021/07/22 02:08:39;;;;;;;1.58;1.30;;;22.30;68.60;;;;;;5093865;28;20151;-73
2021/07/22 02:11:07;;;;;;;2.78;1.35;;;22.20;71.70;;;;;;5077033;28;20408;-73
2021/07/22 02:13:33;;;;;;;4.30;1.50;;;22.10;77.10;;;;;;5093087;28;20097;-73
2021/07/22 02:15:59;;;;;;;4.38;1.42;;;22.60;82.80;;;;;;5093475;28;20041;-73
2021/07/22 02:18:31;;;;;;;1.25;1.15;;;22.10;91.00;;;;;;5094047;28;20119;-74
2021/07/22 02:21:09;;;;;;;2.92;1.13;;;21.90;63.20;;;;;;5092341;28;20036;-73
2021/07/22 02:23:40;;;;;;;1.27;1.02;;;21.90;63.40;;;;;;5092545;28;20075;-73
2021/07/22 02:26:33;;;;;;;2.30;1.27;;;22.10;69.90;;;;;;5090450;28;20066;-74
2021/07/22 02:29:01;;;;;;;2.75;1.40;;;22.30;76.20;;;;;;5092563;28;20036;-73
2021/07/22 02:31:27;;;;;;;0.90;0.90;;;22.10;62.60;;;;;;5092534;28;20043;-73
2021/07/22 02:33:53;;;;;;;2.58;1.50;;;22.40;62.60;;;;;;5093808;28;20396;-74
2021/07/22 02:36:19;;;;;;;1.35;1.25;;;22.50;62.20;;;;;;5106549;28;20454;-74
2021/07/22 02:38:48;;;;;;;1.63;1.02;;;22.60;61.60;;;;;;5114134;28;20035;-73
2021/07/22 02:41:15;;;;;;;1.42;1.33;;;22.70;61.50;;;;;;5096241;28;20063;-73
2021/07/22 02:43:41;;;;;;;2.00;1.35;;;22.70;61.40;;;;;;5094870;28;20063;-72
2021/07/22 02:46:12;;;;;;;2.05;1.00;;;22.90;61.10;;;;;;5114108;28;20369;-73
2021/07/22 02:48:47;;;;;;;2.13;1.35;;;22.90;60.50;;;;;;5114158;28;20043;-73
2021/07/22 02:51:14;;;;;;;1.40;1.27;;;23.00;60.30;;;;;;5095872;28;20169;-73
2021/07/22 02:53:40;;;;;;;1.17;1.10;;;23.10;60.00;;;;;;5095981;28;20019;-74
2021/07/22 02:56:22;;;;;;;2.53;1.20;;;23.20;60.00;;;;;;5095827;28;20031;-75
2021/07/22 02:58:50;;;;;;;2.35;1.10;;;23.10;59.70;;;;;;5095887;28;20133;-75
2021/07/22 03:01:17;;;;;;;2.67;1.10;;;23.30;59.90;;;;;;5095713;28;20042;-75
2021/07/22 03:03:44;;;;;;;3.28;1.10;;;23.40;59.10;;;;;;5113752;28;20496;-77
2021/07/22 03:06:16;;;;;;;1.42;1.08;;;23.50;59.60;;;;;;5095461;28;20035;-75
2021/07/22 03:08:47;;;;;;;2.65;0.82;;;23.50;59.30;;;;;;5079605;28;20046;-75
2021/07/22 03:11:13;;;;;;;3.28;1.10;;;23.40;59.00;;;;;;5095484;28;20088;-75
2021/07/22 03:13:40;;;;;;;4.22;1.02;;;23.30;59.30;;;;;;5095482;28;20031;-74
2021/07/22 03:16:09;;;;;;;2.40;1.00;;;23.20;59.10;;;;;;5095445;28;20049;-74
2021/07/22 03:19:14;;;;;;;2.45;0.90;;;23.10;59.10;;;;;;5051120;28;20045;-74
2021/07/22 03:21:52;;;;;;;1.58;1.10;;;23.00;59.40;;;;;;5036344;28;20055;-75
2021/07/22 03:24:51;;;;;;;3.30;0.93;;;23.00;58.90;;;;;;5086967;28;20092;-75
2021/07/22 03:27:40;;;;;;;0.90;0.85;;;22.90;59.10;;;;;;5102836;28;20543;-74
2021/07/22 03:30:13;;;;;;;2.42;1.10;;;23.00;58.80;;;;;;5095211;28;20062;-74
2021/07/22 03:32:47;;;;;;;2.47;0.93;;;22.90;58.90;;;;;;5095442;28;20039;-74
2021/07/22 03:35:13;;;;;;;2.40;1.23;;;22.80;58.90;;;;;;5094878;28;20496;-74
2021/07/22 03:37:39;;;;;;;2.40;1.02;;;22.80;58.80;;;;;;5113339;28;20471;-74
2021/07/22 03:40:12;;;;;;;2.38;1.00;;;22.70;58.60;;;;;;5113341;28;20036;-75
2021/07/22 03:42:38;;;;;;;1.38;0.80;;;22.60;58.50;;;;;;5094359;28;20035;-77
2021/07/22 03:45:27;;;;;;;0.80;0.80;;;22.70;59.20;;;;;;5113203;28;20468;-78
2021/07/22 03:48:00;;;;;;;1.38;1.08;;;22.80;58.50;;;;;;5094890;28;20519;-76
2021/07/22 03:50:28;;;;;;;1.50;0.82;;;23.00;58.10;;;;;;5095067;28;20027;-77
2021/07/22 03:52:55;;;;;;;4.82;0.88;;;23.20;58.10;;;;;;5078565;28;20122;-76
2021/07/22 03:55:26;;;;;;;2.30;0.80;;;23.40;57.40;;;;;;5095040;28;20027;-75
2021/07/22 03:58:21;;;;;;;0.90;0.90;;;23.40;56.60;;;;;;5028069;28;20050;-76
2021/07/22 04:00:57;;;;;;;1.85;0.80;;;23.50;55.90;;;;;;5113238;28;20059;-76
2021/07/22 04:03:24;;;;;;;2.15;0.80;;;23.70;56.00;;;;;;5113323;28;20089;-75
2021/07/22 04:05:51;;;;;;;0.70;0.70;;;23.70;55.70;;;;;;5095097;28;20024;-76
2021/07/22 04:08:18;;;;;;;2.15;1.00;;;23.80;55.30;;;;;;5113070;28;20043;-74
2021/07/22 04:10:52;;;;;;;;;;;23.80;55.00;;;;;;5113544;28;20082;-75
2021/07/22 04:13:39;;;;;;;2.63;0.68;;;23.90;54.70;;;;;;5080963;28;19912;-75
2021/07/22 04:16:44;;;;;;;4.13;0.80;;;24.10;54.70;;;;;;5050451;28;20049;-74
2021/07/22 04:19:23;;;;;;;2.40;0.70;;;24.20;54.40;;;;;;5050709;28;20059;-73
2021/07/22 04:22:11;;;;;;;0.98;0.75;;;24.30;53.90;;;;;;5082622;28;20048;-75
2021/07/22 04:24:46;;;;;;;2.75;1.00;;;24.30;53.40;;;;;;5094818;28;20081;-76
2021/07/22 04:27:28;;;;;;;1.73;0.90;;;24.40;53.60;;;;;;5094885;28;20070;-77
2021/07/22 04:30:16;;;;;;;0.82;0.80;;;24.40;53.50;;;;;;5112171;28;20100;-82
2021/07/22 04:33:08;;;;;;;3.05;1.10;;;24.50;53.50;;;;;;5096525;28;20070;-79
2021/07/22 04:35:56;;;;;;;1.20;0.90;;;24.70;53.70;;;;;;5094448;28;20059;-80
2021/07/22 04:38:40;;;;;;;14.10;1.00;;;24.90;53.60;;;;;;5112950;28;20040;-80
2021/07/22 04:41:24;;;;;;;5.45;1.10;;;25.00;53.00;;;;;;5113329;28;20412;-82
2021/07/22 04:44:10;;;;;;;6.47;1.02;;;25.20;52.90;;;;;;5081432;28;20043;-82
2021/07/22 04:46:59;;;;;;;1.95;1.00;;;25.20;52.40;;;;;;5075806;28;20493;-83
2021/07/22 04:49:34;;;;;;;3.53;1.50;;;25.20;52.70;;;;;;5091940;28;20036;-83
2021/07/22 04:52:38;;;;;;;3.67;1.25;;;25.40;52.30;;;;;;5028031;28;20269;-84
2021/07/22 04:55:09;;;;;;;6.10;1.80;;;25.50;51.70;;;;;;5028705;28;20514;-86
2021/07/22 04:57:37;;;;;;;2.65;1.20;;;25.70;52.50;;;;;;5044675;28;20052;-83
2021/07/22 05:00:05;;;;;;;3.88;1.35;;;25.90;51.80;;;;;;5075041;28;20039;-80
2021/07/22 05:02:42;;;;;;;3.05;1.75;;;26.10;51.80;;;;;;5078193;28;20575;-82
2021/07/22 05:05:10;;;;;;;1.52;1.27;;;26.20;52.00;;;;;;5077723;28;20032;-83
2021/07/22 05:07:59;;;;;;;3.22;1.40;;;26.20;51.30;;;;;;5095521;28;20158;-84
2021/07/22 05:10:38;;;;;;;4.45;1.40;;;26.20;50.20;;;;;;5077590;28;20032;-84
2021/07/22 05:13:21;;;;;;;3.67;1.20;;;26.40;50.50;;;;;;5077633;28;20036;-80
2021/07/22 05:16:10;;;;;;;1.10;0.73;;;26.50;50.60;;;;;;5077593;28;20035;-82
2021/07/22 05:19:01;;;;;;;6.82;1.05;;;26.60;49.70;;;;;;5077997;28;20519;-89
2021/07/22 05:21:51;;;;;;;5.40;1.10;;;26.70;50.30;;;;;;5070224;28;20048;-89
2021/07/22 05:24:23;;;;;;;3.92;1.20;;;26.90;50.80;;;;;;5104588;28;20568;-86
2021/07/22 05:26:55;;;;;;;2.25;1.10;;;27.00;49.80;;;;;;5114701;28;20044;-91
2021/07/22 05:29:36;;;;;;;3.33;0.98;;;27.10;50.00;;;;;;5079666;28;20401;-84
2021/07/22 05:32:25;;;;;;;3.15;1.30;;;27.30;50.60;;;;;;5093708;28;20036;-85
2021/07/22 05:35:08;;;;;;;2.88;0.98;;;27.50;51.10;;;;;;5077460;28;20074;-85
2021/07/22 05:38:03;;;;;;;;;;;27.60;49.70;;;;;;5023105;28;20530;-85
2021/07/22 05:40:29;;;;;;;3.65;1.17;;;27.70;49.30;;;;;;5077274;28;19951;-91
2021/07/22 05:42:55;;;;;;;1.90;0.63;;;27.80;48.40;;;;;;5095349;28;20036;-89
2021/07/22 05:45:21;;;;;;;1.50;0.73;;;27.90;48.20;;;;;;5076862;28;20039;-84
2021/07/22 05:47:47;;;;;;;3.47;0.85;;;28.00;48.30;;;;;;5093149;28;20043;-84
2021/07/22 05:50:13;;;;;;;3.10;0.80;;;28.00;47.40;;;;;;5076748;28;20135;-91
2021/07/22 05:52:39;;;;;;;5.75;0.60;;;28.00;47.80;;;;;;5076849;28;20051;-89
2021/07/22 05:55:05;;;;;;;2.67;0.70;;;28.10;47.00;;;;;;5095009;28;20036;-89
2021/07/22 05:57:32;;;;;;;0.60;0.40;;;28.20;46.80;;;;;;5094833;28;20036;-90
2021/07/22 05:59:58;;;;;;;1.13;0.52;;;28.30;46.40;;;;;;5094863;28;20400;-85
2021/07/22 06:02:24;;;;;;;0.40;0.40;;;28.40;46.10;;;;;;5095142;28;20046;-86
2021/07/22 06:04:50;;;;;;;1.63;0.40;;;28.40;45.70;;;;;;5094775;28;20485;-87
2021/07/22 06:07:16;;;;;;;0.85;0.68;;;28.40;45.70;;;;;;5059950;28;20036;-79
2021/07/22 06:09:41;;;;;;;9.15;0.70;;;28.50;45.30;;;;;;5094664;28;20071;-82
2021/07/22 06:12:08;;;;;;;2.15;0.55;;;28.60;45.50;;;;;;5078446;28;20043;-86
2021/07/22 06:14:33;;;;;;;1.95;0.73;;;28.60;45.50;;;;;;5084497;28;20034;-86
2021/07/22 06:16:59;;;;;;;1.60;0.65;;;28.70;44.70;;;;;;5114718;28;20043;-86
2021/07/22 06:19:25;;;;;;;3.40;0.75;;;28.60;44.80;;;;;;5111964;28;20085;-78
2021/07/22 06:21:51;;;;;;;4.93;0.88;;;28.70;44.60;;;;;;5115635;28;20035;-78
2021/07/22 06:24:17;;;;;;;4.03;1.10;;;28.70;44.30;;;;;;5111221;28;20036;-76
2021/07/22 06:26:43;;;;;;;2.67;0.70;;;28.70;43.50;;;;;;5072150;28;20549;-79
2021/07/22 06:29:09;;;;;;;12.38;1.35;;;28.60;43.70;;;;;;5100802;28;20032;-77
2021/07/22 06:31:36;;;;;;;2.30;0.65;;;28.60;44.90;;;;;;5112812;28;20035;-82
2021/07/22 06:34:01;;;;;;;4.40;0.80;;;28.70;44.70;;;;;;5114287;28;20035;-81
2021/07/22 06:36:28;;;;;;;3.85;0.70;;;28.70;44.70;;;;;;5114775;28;20055;-80
2021/07/22 06:38:54;;;;;;;2.10;1.10;;;28.70;44.40;;;;;;5096265;28;20058;-79
2021/07/22 06:41:21;;;;;;;2.20;0.82;;;28.80;44.70;;;;;;5114853;28;20036;-80
2021/07/22 06:43:47;;;;;;;1.75;1.35;;;28.80;44.50;;;;;;5096154;28;20047;-81
2021/07/22 06:46:13;;;;;;;1.98;0.82;;;28.80;44.60;;;;;;5114307;28;20031;-81
2021/07/22 06:48:40;;;;;;;3.63;1.10;;;28.80;44.50;;;;;;5113923;28;20177;-84
2021/07/22 06:51:09;;;;;;;4.20;2.70;;;28.80;44.50;;;;;;5079116;28;20505;-82
2021/07/22 06:53:36;;;;;;;9.40;3.17;;;28.80;44.50;;;;;;5095831;28;20035;-83
2021/07/22 06:56:02;;;;;;;4.90;2.50;;;28.80;44.50;;;;;;5114578;28;20035;-79
2021/07/22 06:58:28;;;;;;;3.25;1.40;;;28.80;44.20;;;;;;5095609;28;20073;-79
2021/07/22 07:00:54;;;;;;;3.58;1.45;;;28.70;42.60;;;;;;5114535;28;20043;-78
2021/07/22 07:03:20;;;;;;;7.45;2.28;;;28.50;42.80;;;;;;5113755;28;20055;-78
2021/07/22 07:05:47;;;;;;;4.10;1.95;;;28.40;43.90;;;;;;5113923;28;20124;-76
2021/07/22 07:08:13;;;;;;;5.50;2.17;;;28.50;44.40;;;;;;5099015;28;20039;-82
2021/07/22 07:10:39;;;;;;;4.30;2.10;;;28.50;44.70;;;;;;5098208;28;20032;-82
2021/07/22 07:13:05;;;;;;;4.40;1.40;;;28.50;44.50;;;;;;5104866;28;20503;-81
2021/07/22 07:15:35;;;;;;;2.33;1.00;;;28.50;44.00;;;;;;5102818;27;20044;-88
2021/07/22 07:18:04;;;;;;;1.23;0.90;;;28.50;43.60;;;;;;5073201;28;20032;-80
2021/07/22 07:20:31;;;;;;;2.65;0.73;;;28.50;43.70;;;;;;5092152;28;20051;-84
2021/07/22 07:22:57;;;;;;;2.00;0.70;;;28.40;42.00;;;;;;5090939;28;20088;-84
2021/07/22 07:25:23;;;;;;;1.35;0.68;;;28.40;42.20;;;;;;5091468;28;20521;-79
2021/07/22 07:27:49;;;;;;;0.70;0.60;;;28.40;42.30;;;;;;5058071;28;20085;-82
2021/07/22 07:30:18;;;;;;;3.40;0.63;;;28.30;40.90;;;;;;5072865;28;20035;-80
2021/07/22 07:32:43;;;;;;;0.73;0.50;;;28.30;41.30;;;;;;5093562;28;20055;-79
2021/07/22 07:35:10;;;;;;;4.38;0.65;;;28.30;41.70;;;;;;5082642;28;20476;-79
2021/07/22 07:37:36;;;;;;;1.17;0.60;;;28.30;41.60;;;;;;5073738;28;20054;-84
2021/07/22 07:40:02;;;;;;;1.08;0.50;;;28.20;41.70;;;;;;5069956;28;20084;-88
2021/07/22 07:42:28;;;;;;;1.08;0.45;;;28.20;41.60;;;;;;5091470;28;20040;-81
2021/07/22 07:44:54;;;;;;;0.45;0.40;;;28.20;42.10;;;;;;5095592;28;20054;-83
2021/07/22 07:47:20;;;;;;;2.08;0.60;;;28.20;42.60;;;;;;5099552;28;20032;-80
2021/07/22 07:49:46;;;;;;;2.28;0.28;;;28.20;41.90;;;;;;5105408;28;20042;-78
2021/07/22 07:52:12;;;;;;;0.85;0.38;;;28.10;41.90;;;;;;5106277;28;20043;-80
2021/07/22 07:54:38;;;;;;;2.88;0.50;;;28.10;41.80;;;;;;5112003;28;20047;-79
2021/07/22 07:57:07;;;;;;;0.82;0.40;;;28.20;41.90;;;;;;5080801;28;20043;-85
2021/07/22 07:59:33;;;;;;;0.77;0.50;;;28.20;41.80;;;;;;5074021;28;20048;-82
2021/07/22 08:01:59;;;;;;;5.03;0.55;;;28.10;41.80;;;;;;5093006;28;20046;-78
2021/07/22 08:04:26;;;;;;;1.30;0.60;;;28.10;42.20;;;;;;5092926;28;20492;-77
2021/07/22 08:06:52;;;;;;;2.90;0.57;;;28.10;41.50;;;;;;5088880;28;20080;-76
2021/07/22 08:09:40;;;;;;;2.13;0.50;;;28.10;41.30;;;;;;5056329;28;20480;-79
2021/07/22 08:12:06;;;;;;;3.72;0.50;;;28.00;41.90;;;;;;5048839;28;20068;-85
2021/07/22 08:14:39;;;;;;;0.98;0.60;;;28.00;42.10;;;;;;5032086;28;20548;-82
2021/07/22 08:17:05;;;;;;;2.50;0.50;;;28.00;41.90;;;;;;5048557;28;20572;-79
2021/07/22 08:19:36;;;;;;;2.67;0.40;;;27.90;41.80;;;;;;5015510;28;20095;-77
2021/07/22 08:22:02;;;;;;;4.30;0.77;;;27.80;42.00;;;;;;5032311;28;20048;-80
2021/07/22 08:24:32;;;;;;;1.10;0.50;;;27.70;40.30;;;;;;5015265;28;20497;-80
2021/07/22 08:26:58;;;;;;;2.92;0.60;;;27.60;41.00;;;;;;5048250;28;20037;-74
2021/07/22 08:29:24;;;;;;;0.93;0.63;;;27.50;41.40;;;;;;5047364;28;20041;-74
2021/07/22 08:31:50;;;;;;;3.60;0.40;;;27.50;41.70;;;;;;5048437;28;20603;-75
2021/07/22 08:34:17;;;;;;;0.90;0.40;;;27.40;42.50;;;;;;5031428;28;20128;-74
2021/07/22 08:36:43;;;;;;;2.25;0.40;;;27.50;42.20;;;;;;5034720;28;20159;-73
2021/07/22 08:39:10;;;;;;;2.55;0.40;;;27.40;41.70;;;;;;5018751;28;20132;-73
2021/07/22 08:41:36;;;;;;;2.95;0.57;;;27.50;41.90;;;;;;5052165;28;20060;-73
2021/07/22 08:44:05;;;;;;;2.08;0.70;;;27.50;41.60;;;;;;5019111;28;20036;-74
2021/07/22 08:46:34;;;;;;;0.63;0.40;;;27.40;41.20;;;;;;5036150;28;20041;-72
2021/07/22 08:49:00;;;;;;;4.55;0.70;;;27.30;41.90;;;;;;5036177;28;20140;-73
2021/07/22 08:51:27;;;;;;;1.73;0.40;;;27.40;42.00;;;;;;5052392;28;20420;-81
2021/07/22 08:53:54;;;;;;;1.23;0.45;;;27.30;41.90;;;;;;5051818;28;20134;-80
2021/07/22 08:56:25;;;;;;;2.55;0.57;;;27.40;42.00;;;;;;5035087;28;20127;-73
2021/07/22 08:58:51;;;;;;;3.78;0.70;;;27.40;42.40;;;;;;5035200;28;20040;-73
2021/07/22 09:01:19;;;;;;;4.68;0.70;;;27.40;43.00;;;;;;5022599;28;20078;-75
2021/07/22 09:03:45;;;;;;;1.67;0.60;;;27.40;43.00;;;;;;5059407;28;20060;-74
2021/07/22 09:06:15;;;;;;;0.52;0.40;;;27.30;42.90;;;;;;5114376;28;20066;-75
2021/07/22 09:08:42;;;;;;;2.78;0.75;;;27.20;42.20;;;;;;5079145;28;20041;-75
2021/07/22 09:11:10;;;;;;;2.78;0.60;;;27.20;42.90;;;;;;5097323;28;20035;-76
2021/07/22 09:13:37;;;;;;;2.55;0.52;;;27.10;42.80;;;;;;5115177;28;20506;-74
2021/07/22 09:16:04;;;;;;;1.35;0.40;;;27.10;43.30;;;;;;5114814;28;20183;-76
2021/07/22 09:18:35;;;;;;;2.50;0.45;;;27.10;43.40;;;;;;5096065;28;20066;-73
2021/07/22 09:21:17;;;;;;;8.85;0.60;;;27.10;43.60;;;;;;5096087;28;20057;-74
2021/07/22 09:24:05;;;;;;;2.25;0.35;;;27.10;43.10;;;;;;5114409;28;20043;-76
2021/07/22 09:26:33;;;;;;;3.15;0.40;;;27.10;43.20;;;;;;5115277;28;20084;-71
2021/07/22 09:29:08;;;;;;;4.13;1.10;;;27.00;43.10;;;;;;5080037;28;20035;-72
2021/07/22 09:31:35;;;;;;;6.97;1.30;;;26.90;43.10;;;;;;5080536;28;20503;-72
2021/07/22 09:34:03;;;;;;;7.00;0.93;;;27.00;43.30;;;;;;5096737;28;20126;-71
2021/07/22 09:36:31;;;;;;;6.22;0.80;;;27.00;43.80;;;;;;5115344;28;20048;-73
2021/07/22 09:39:25;;;;;;;6.45;0.82;;;27.00;43.80;;;;;;5097034;28;20042;-75
2021/07/22 09:45:19;;;;;;;2.63;0.80;;;27.00;44.30;;;;;;5115526;28;20062;-73
2021/07/22 09:47:48;;;;;;;2.78;0.85;;;27.00;43.80;;;;;;5096777;28;20495;-73
2021/07/22 09:50:19;;;;;;;3.65;1.20;;;26.90;43.70;;;;;;5115331;28;20047;-73
2021/07/22 09:52:46;;;;;;;1.83;0.60;;;27.00;43.90;;;;;;5115090;28;20035;-74
2021/07/22 09:55:32;;;;;;;9.02;1.48;;;26.90;42.50;;;;;;5115238;28;20038;-74
2021/07/22 09:57:59;;;;;;;3.35;0.80;;;26.80;42.80;;;;;;5096971;28;20046;-74
2021/07/22 10:00:26;;;;;;;4.95;0.95;;;26.70;43.80;;;;;;5097197;28;20542;-74
2021/07/22 10:02:55;;;;;;;3.72;0.60;;;26.80;42.50;;;;;;5097243;28;20032;-74
2021/07/22 10:05:27;;;;;;;1.15;0.40;;;26.70;42.90;;;;;;5115148;28;20036;-74
2021/07/22 10:07:55;;;;;;;4.70;0.60;;;26.70;43.20;;;;;;5096946;28;20068;-74
2021/07/22 10:10:28;;;;;;;3.03;0.52;;;26.60;41.60;;;;;;5096602;28;20035;-74
2021/07/22 10:13:00;;;;;;;1.65;0.30;;;26.60;41.30;;;;;;5079684;28;20043;-74
2021/07/22 10:15:28;;;;;;;1.50;0.32;;;26.40;41.30;;;;;;5096563;28;20110;-74
2021/07/22 10:17:56;;;;;;;1.65;0.63;;;26.30;41.80;;;;;;5096285;28;20411;-74
2021/07/22 10:20:27;;;;;;;0.63;0.50;;;26.40;42.20;;;;;;5114857;28;20028;-74
2021/07/22 10:22:53;;;;;;;4.53;0.70;;;26.50;42.20;;;;;;5079602;28;20035;-73
2021/07/22 10:25:19;;;;;;;3.25;0.30;;;26.40;41.80;;;;;;5114613;28;20503;-73
2021/07/22 10:27:45;;;;;;;1.60;0.40;;;26.40;42.10;;;;;;5114702;28;20034;-74
2021/07/22 10:30:16;;;;;;;0.90;0.40;;;26.40;41.80;;;;;;5114519;28;20423;-74
2021/07/22 10:32:49;;;;;;;1.63;0.30;;;26.40;41.50;;;;;;5114880;28;20092;-74
2021/07/22 10:35:25;;;;;;;0.40;0.20;;;26.50;41.20;;;;;;5114291;28;20058;-74
2021/07/22 10:38:10;;;;;;;0.68;0.20;;;26.40;40.70;;;;;;5096172;28;20035;-74
2021/07/22 10:40:49;;;;;;;1.23;0.30;;;26.40;41.20;;;;;;5114263;28;20040;-74
2021/07/22 10:43:39;;;;;;;2.38;0.50;;;26.40;41.40;;;;;;5114620;28;20047;-74
2021/07/22 10:46:13;;;;;;;0.55;0.22;;;26.50;41.40;;;;;;5096511;28;20027;-74
2021/07/22 10:48:41;;;;;;;3.00;0.30;;;26.40;40.90;;;;;;5095943;28;20487;-74
2021/07/22 10:51:20;;;;;;;0.25;0.25;;;26.40;40.70;;;;;;5114163;28;20092;-74
2021/07/22 10:53:51;;;;;;;3.30;0.22;;;26.30;41.30;;;;;;5095815;28;20086;-74
2021/07/22 10:56:23;;;;;;;2.60;0.50;;;26.20;41.40;;;;;;5114058;28;20035;-74
2021/07/22 10:58:56;;;;;;;0.88;0.30;;;26.30;41.30;;;;;;5113064;28;20035;-74
2021/07/22 11:01:42;;;;;;;2.00;0.30;;;26.30;41.10;;;;;;5095827;28;20043;-74
2021/07/22 11:04:35;;;;;;;1.48;0.30;;;26.20;41.50;;;;;;5113116;28;20040;-74
2021/07/22 11:07:01;;;;;;;0.70;0.35;;;26.30;41.10;;;;;;5084724;28;20040;-74
2021/07/22 11:09:51;;;;;;;4.20;0.30;;;26.30;40.50;;;;;;5078491;28;20028;-74
2021/07/22 11:12:36;;;;;;;1.80;0.45;;;26.20;40.30;;;;;;5113921;28;20047;-74
2021/07/22 11:15:04;;;;;;;1.17;0.50;;;26.10;40.40;;;;;;5113803;28;20050;-73
2021/07/22 11:17:31;;;;;;;1.30;0.30;;;26.00;40.70;;;;;;5113678;28;20031;-73
2021/07/22 11:20:20;;;;;;;4.07;0.30;;;26.00;41.50;;;;;;5095515;28;20036;-73
2021/07/22 11:22:48;;;;;;;2.25;0.40;;;26.10;41.40;;;;;;5100273;28;20488;-73
2021/07/22 11:25:16;;;;;;;1.25;0.40;;;26.10;41.80;;;;;;5113580;28;20032;-73
2021/07/22 11:27:49;;;;;;;2.80;0.32;;;26.10;41.80;;;;;;5113450;28;20070;-73
2021/07/22 11:30:18;;;;;;;1.52;0.28;;;26.00;41.30;;;;;;5113482;28;20024;-73
2021/07/22 11:32:44;;;;;;;2.00;0.95;;;26.10;41.40;;;;;;5113534;28;20073;-73
2021/07/22 11:35:11;;;;;;;1.73;0.60;;;26.10;41.30;;;;;;5112888;28;20445;-75
2021/07/22 11:37:39;;;;;;;1.27;0.50;;;26.10;41.40;;;;;;5113913;28;20035;-73
2021/07/22 11:40:11;;;;;;;0.30;0.30;;;26.20;41.70;;;;;;5113286;28;20043;-73
2021/07/22 11:42:50;;;;;;;1.50;0.40;;;26.20;41.30;;;;;;5113443;28;20031;-73
2021/07/22 11:45:17;;;;;;;0.63;0.40;;;26.20;41.50;;;;;;5095089;28;20035;-75
2021/07/22 11:47:43;;;;;;;0.93;0.30;;;26.20;41.80;;;;;;5113249;28;20171;-72
2021/07/22 11:50:09;;;;;;;1.73;0.50;;;26.20;41.30;;;;;;5113206;28;20075;-75
2021/07/22 11:52:36;;;;;;;1.58;0.40;;;26.20;41.90;;;;;;5095400;28;20483;-72
2021/07/22 11:55:11;;;;;;;1.08;0.40;;;26.20;41.80;;;;;;5113511;28;20032;-75
2021/07/22 11:57:40;;;;;;;;;;;26.20;41.80;;;;;;5078621;28;20391;-74
2021/07/22 12:00:17;;;;;;;2.53;0.57;;;26.30;41.60;;;;;;5112936;28;20009;-74
2021/07/22 12:02:44;;;;;;;2.58;0.73;;;26.20;40.90;;;;;;5113332;28;20373;-74
2021/07/22 12:05:11;;;;;;;2.00;0.40;;;26.10;41.00;;;;;;5112945;28;20130;-74
2021/07/22 12:07:37;;;;;;;2.42;0.40;;;26.10;41.30;;;;;;5113066;28;20118;-74
2021/07/22 12:10:03;;;;;;;2.17;0.40;;;26.10;41.70;;;;;;5115675;28;20108;-74
2021/07/22 12:12:29;;;;;;;1.13;0.50;;;26.10;41.60;;;;;;5098884;28;20092;-74
2021/07/22 12:15:08;;;;;;;1.45;0.40;;;26.20;41.80;;;;;;5117202;28;20039;-74
2021/07/22 12:17:35;;;;;;;0.95;0.47;;;26.20;41.70;;;;;;5082024;28;20050;-74
2021/07/22 12:20:02;;;;;;;0.88;0.30;;;26.20;41.60;;;;;;5116944;28;20088;-74
2021/07/22 12:22:31;;;;;;;1.90;0.50;;;26.20;41.40;;;;;;5117319;28;20089;-72
2021/07/22 12:25:06;;;;;;;2.40;0.50;;;26.20;41.40;;;;;;5116718;28;20507;-74
2021/07/22 12:27:43;;;;;;;0.95;0.52;;;26.30;41.50;;;;;;5117561;28;20039;-74
2021/07/22 12:30:18;;;;;;;1.02;0.50;;;26.20;41.20;;;;;;5117039;28;20074;-74
2021/07/22 12:33:04;;;;;;;0.80;0.50;;;26.20;41.40;;;;;;5116850;28;20111;-74
2021/07/22 12:35:34;;;;;;;2.03;0.75;;;26.20;41.70;;;;;;5094829;28;20483;-74
2021/07/22 12:38:07;;;;;;;1.23;0.70;;;26.20;41.20;;;;;;5096249;28;20377;-74
2021/07/22 12:40:40;;;;;;;1.27;0.88;;;26.20;40.70;;;;;;5096383;28;20039;-74
2021/07/22 12:43:08;;;;;;;2.05;0.70;;;26.10;40.00;;;;;;5096260;28;20071;-74
2021/07/22 12:45:34;;;;;;;0.90;0.70;;;26.10;40.40;;;;;;5078040;28;20040;-74
2021/07/22 12:48:00;;;;;;;3.15;0.73;;;26.10;40.80;;;;;;5094982;28;20572;-74
2021/07/22 12:50:30;;;;;;;2.63;0.60;;;26.10;40.60;;;;;;5095879;28;20036;-74
2021/07/22 12:53:04;;;;;;;1.63;0.57;;;26.10;40.80;;;;;;5096402;28;20036;-74
2021/07/22 12:55:38;;;;;;;4.47;0.73;;;26.20;40.90;;;;;;5095096;28;20043;-74
2021/07/22 12:58:05;;;;;;;3.92;0.75;;;26.10;40.90;;;;;;5095942;28;20043;-74
2021/07/22 13:00:41;;;;;;;2.60;0.75;;;26.10;41.10;;;;;;5095029;28;20080;-74
2021/07/22 13:03:08;;;;;;;3.13;0.85;;;26.10;40.60;;;;;;5096480;28;20036;-75
2021/07/22 13:05:34;;;;;;;2.78;0.70;;;26.20;40.50;;;;;;5094893;28;20047;-74
2021/07/22 13:07:59;;;;;;;5.57;0.73;;;26.10;40.20;;;;;;5095758;28;20480;-73
2021/07/22 13:10:28;;;;;;;2.40;0.60;;;26.00;40.40;;;;;;5096237;28;20043;-75
2021/07/22 13:12:59;;;;;;;3.15;0.65;;;26.00;40.50;;;;;;5094978;28;20156;-75